Time;durP1;ratioP1;P1;durP2;ratioP2;P2;SDS_P1;SDS_P2;PMS_P1;PMS_P2;Temp;Humidity;BMP_temperature;BMP_pressure;BME280_temperature;BME280_humidity;BME280_pressure;Samples;Min_cycle;Max_cycle;Signal;HPM_P1;HPM_P2
2022/11/29 00:01:30;;;;;;;40.95;30.23;;;;;;;5.60;100.00;101365.78;5028292;28;20029;-83
2022/11/29 00:03:55;;;;;;;39.17;29.42;;;;;;;5.61;100.00;101364.91;5012812;28;20030;-80
2022/11/29 00:06:28;;;;;;;44.45;29.65;;;;;;;5.56;100.00;101370.28;5016793;28;20021;-84
2022/11/29 00:08:55;;;;;;;45.30;30.25;;;;;;;5.52;100.00;101363.53;5032786;28;20026;-84
2022/11/29 00:14:10;;;;;;;39.08;28.98;;;;;;;5.52;100.00;101363.53;5031671;28;20040;-84
2022/11/29 00:16:36;;;;;;;37.30;28.90;;;;;;;5.52;100.00;101362.66;5016666;28;20478;-80
2022/11/29 00:19:04;;;;;;;37.15;29.23;;;;;;;5.47;100.00;101365.50;5032186;28;20035;-84
2022/11/29 00:21:30;;;;;;;33.95;27.70;;;;;;;5.47;100.00;101362.88;5031492;28;20096;-84
2022/11/29 00:23:55;;;;;;;31.98;27.90;;;;;;;5.46;100.00;101374.22;5031721;28;20112;-83
2022/11/29 00:26:21;;;;;;;29.80;26.73;;;;;;;5.46;100.00;101366.41;5031686;28;20064;-80
2022/11/29 00:28:46;;;;;;;33.13;27.23;;;;;;;5.44;100.00;101368.25;5032621;28;20040;-83
2022/11/29 00:31:19;;;;;;;35.53;25.95;;;;;;;5.40;100.00;101381.50;5031180;28;20033;-84
2022/11/29 00:33:45;;;;;;;29.45;24.88;;;;;;;5.42;100.00;101375.28;5022127;28;20487;-84
2022/11/29 00:36:11;;;;;;;43.58;28.65;;;;;;;5.39;100.00;101370.22;5016809;28;20104;-84
2022/11/29 00:38:37;;;;;;;52.15;31.52;;;;;;;5.40;100.00;101378.88;5030985;28;20104;-84
2022/11/29 00:41:06;;;;;;;36.28;29.17;;;;;;;5.39;100.00;101377.19;5031087;28;20080;-84
2022/11/29 00:43:31;;;;;;;50.05;32.80;;;;;;;5.37;100.00;101385.09;5031373;28;20108;-80
2022/11/29 00:45:57;;;;;;;37.92;29.17;;;;;;;5.39;100.00;101378.03;5030552;28;20625;-84
2022/11/29 00:48:22;;;;;;;40.92;30.90;;;;;;;5.41;100.00;101378.81;5029604;28;20127;-84
2022/11/29 00:50:48;;;;;;;42.80;31.20;;;;;;;5.42;100.00;101371.84;5046549;28;20075;-84
2022/11/29 00:53:13;;;;;;;40.72;29.70;;;;;;;5.43;100.00;101363.94;5030476;28;20424;-84
2022/11/29 00:55:38;;;;;;;44.58;31.02;;;;;;;5.39;100.00;101366.75;5030896;28;20068;-84
2022/11/29 00:58:05;;;;;;;39.30;29.17;;;;;;;5.39;100.00;101371.97;5029253;28;20033;-84
2022/11/29 01:00:30;;;;;;;43.30;29.15;;;;;;;5.37;100.00;101361.59;5029819;28;20021;-80
2022/11/29 01:02:55;;;;;;;39.80;29.17;;;;;;;5.39;100.00;101367.59;5030764;28;20623;-84
2022/11/29 01:05:21;;;;;;;50.38;30.90;;;;;;;5.38;100.00;101368.50;5024905;28;20390;-83
2022/11/29 01:07:46;;;;;;;76.53;32.30;;;;;;;5.39;100.00;101371.97;5011432;28;20060;-84
2022/11/29 01:10:12;;;;;;;44.30;31.42;;;;;;;5.38;100.00;101370.28;5013907;28;20428;-84
2022/11/29 01:12:38;;;;;;;43.20;31.08;;;;;;;5.34;100.00;101367.81;5030045;28;20025;-79
2022/11/29 01:15:05;;;;;;;35.90;28.45;;;;;;;5.38;100.00;101371.13;5030403;28;20394;-80
2022/11/29 01:17:33;;;;;;;38.50;29.35;;;;;;;5.37;100.00;101374.66;5030872;28;20032;-79
2022/11/29 01:19:58;;;;;;;36.83;29.67;;;;;;;5.37;100.00;101377.25;5027571;28;20143;-83
2022/11/29 01:22:24;;;;;;;40.08;29.90;;;;;;;5.32;100.00;101380.06;5029902;28;20068;-84
2022/11/29 01:24:49;;;;;;;45.13;30.35;;;;;;;5.32;100.00;101382.69;5027882;28;20030;-84
2022/11/29 01:27:15;;;;;;;55.75;28.90;;;;;;;5.32;100.00;101387.91;5029817;28;20113;-84
2022/11/29 01:29:40;;;;;;;93.72;32.90;;;;;;;5.30;100.00;101381.91;5029882;28;20029;-80
2022/11/29 01:32:06;;;;;;;73.40;32.00;;;;;;;5.32;100.00;101392.28;5029644;28;20040;-80
2022/11/29 01:34:31;;;;;;;64.45;31.33;;;;;;;5.30;100.00;101391.50;5029520;28;20025;-84
2022/11/29 01:36:57;;;;;;;56.90;33.08;;;;;;;5.27;100.00;101389.88;5029437;28;20017;-84
2022/11/29 01:39:22;;;;;;;44.67;31.92;;;;;;;5.28;100.00;101394.16;5030128;28;20441;-80
2022/11/29 01:41:48;;;;;;;39.70;30.92;;;;;;;5.25;100.00;101396.06;5015670;28;20068;-84
2022/11/29 01:44:13;;;;;;;40.53;30.17;;;;;;;5.31;100.00;101398.41;5034929;28;20036;-84
2022/11/29 01:46:43;;;;;;;45.47;31.88;;;;;;;5.26;100.00;101397.75;5014854;28;20025;-84
2022/11/29 01:49:13;;;;;;;42.70;30.00;;;;;;;5.27;100.00;101402.06;5028774;28;20025;-84
2022/11/29 01:51:43;;;;;;;40.00;29.02;;;;;;;5.27;100.00;101407.28;5030522;28;20481;-83
2022/11/29 01:54:10;;;;;;;49.83;31.80;;;;;;;5.28;100.00;101414.19;5029437;28;20120;-83
2022/11/29 01:56:37;;;;;;;46.33;31.55;;;;;;;5.28;100.00;101416.78;5028351;28;20482;-84
2022/11/29 01:59:06;;;;;;;43.47;30.50;;;;;;;5.31;100.00;101416.66;5026055;28;20079;-80
2022/11/29 02:01:33;;;;;;;50.17;30.10;;;;;;;5.30;100.00;101417.56;5030253;28;20124;-81
2022/11/29 02:03:59;;;;;;;58.97;31.58;;;;;;;5.27;100.00;101425.53;5030571;28;20112;-84
2022/11/29 02:06:25;;;;;;;96.30;34.20;;;;;;;5.29;100.00;101423.72;5028935;28;20160;-83
2022/11/29 02:08:52;;;;;;;96.80;33.45;;;;;;;5.26;100.00;101429.06;5029609;28;20021;-83
2022/11/29 02:11:43;;;;;;;134.98;39.92;;;;;;;5.27;100.00;101438.59;5030462;28;20033;-83
2022/11/29 02:14:48;;;;;;;57.25;29.92;;;;;;;5.31;100.00;101434.94;5023743;28;20021;-83
2022/11/29 02:17:37;;;;;;;145.20;38.60;;;;;;;5.23;100.00;101434.41;5028981;28;20033;-84
2022/11/29 02:20:27;;;;;;;67.57;30.70;;;;;;;5.29;100.00;101444.59;5029407;28;20359;-80
2022/11/29 02:23:11;;;;;;;83.95;30.70;;;;;;;5.27;100.00;101435.97;5028551;28;20029;-80
2022/11/29 02:25:46;;;;;;;145.38;35.90;;;;;;;5.26;100.00;101440.34;5029289;28;20026;-84
2022/11/29 02:28:29;;;;;;;131.25;34.95;;;;;;;5.30;100.00;101441.06;5028725;28;20025;-84
2022/11/29 02:31:51;;;;;;;125.80;36.85;;;;;;;5.31;100.00;101440.16;5025514;28;20108;-84
2022/11/29 02:34:22;;;;;;;135.05;37.67;;;;;;;5.30;100.00;101433.22;4995250;28;20096;-80
2022/11/29 02:37:06;;;;;;;133.63;38.58;;;;;;;5.28;100.00;101433.28;5003851;28;20057;-84
2022/11/29 02:39:50;;;;;;;110.35;35.25;;;;;;;5.27;100.00;101430.75;5020526;28;20042;-80
2022/11/29 02:42:50;;;;;;;111.43;38.85;;;;;;;5.27;100.00;101433.38;5009561;28;20036;-84
2022/11/29 02:45:32;;;;;;;113.47;38.55;;;;;;;5.25;100.00;101427.38;5010605;28;20026;-84
2022/11/29 02:48:16;;;;;;;75.70;34.50;;;;;;;5.28;100.00;101442.88;5029155;28;20061;-80
2022/11/29 02:51:00;;;;;;;77.03;35.97;;;;;;;5.24;100.00;101441.31;5028100;28;20032;-84
2022/11/29 02:53:55;;;;;;;95.55;36.70;;;;;;;5.27;100.00;101436.81;5011695;28;20040;-84
2022/11/29 02:56:28;;;;;;;84.30;35.28;;;;;;;5.21;100.00;101436.22;5020278;28;20442;-84
2022/11/29 02:59:15;;;;;;;55.22;32.75;;;;;;;5.20;100.00;101445.81;5028263;28;20448;-84
2022/11/29 03:01:54;;;;;;;58.35;32.50;;;;;;;5.16;100.00;101440.78;5028057;28;20504;-80
2022/11/29 03:04:35;;;;;;;43.35;30.13;;;;;;;5.13;100.00;101451.34;5027029;28;20537;-84
2022/11/29 03:07:21;;;;;;;43.15;29.10;;;;;;;5.11;100.00;101461.84;5027030;28;20049;-84
2022/11/29 03:10:34;;;;;;;42.78;29.90;;;;;;;5.13;100.00;101454.78;5029175;28;20129;-84
2022/11/29 03:13:04;;;;;;;49.65;30.88;;;;;;;5.00;100.00;101451.84;4991762;28;20068;-84
2022/11/29 03:15:43;;;;;;;50.05;31.33;;;;;;;4.98;100.00;101460.66;5009040;28;20026;-84
2022/11/29 03:18:39;;;;;;;35.70;27.98;;;;;;;4.98;100.00;101468.47;5025932;28;20390;-80
2022/11/29 03:21:18;;;;;;;36.30;30.30;;;;;;;4.92;100.00;101469.56;5028092;28;20091;-84
2022/11/29 03:23:49;;;;;;;30.42;27.50;;;;;;;4.95;100.00;101474.66;5028099;28;20041;-84
2022/11/29 03:26:40;;;;;;;30.23;26.80;;;;;;;4.99;100.00;101473.63;5013609;28;20021;-84
2022/11/29 03:29:10;;;;;;;32.28;26.60;;;;;;;4.90;100.00;101474.00;5020583;28;20036;-84
2022/11/29 03:31:55;;;;;;;38.47;27.73;;;;;;;4.89;100.00;101477.53;5033729;28;20055;-80
2022/11/29 03:34:58;;;;;;;37.25;26.58;;;;;;;4.93;100.00;101479.09;5032491;28;20691;-84
2022/11/29 03:37:36;;;;;;;43.33;28.25;;;;;;;4.89;100.00;101479.28;5033223;28;20029;-84
2022/11/29 03:40:08;;;;;;;104.50;31.08;;;;;;;4.81;100.00;101482.19;5031613;28;20428;-84
2022/11/29 03:42:41;;;;;;;93.28;31.48;;;;;;;4.80;100.00;101488.28;5031375;28;20037;-84
2022/11/29 03:45:13;;;;;;;58.97;28.80;;;;;;;4.80;100.00;101487.44;5013702;28;20075;-84
2022/11/29 03:47:51;;;;;;;113.95;34.75;;;;;;;4.76;100.00;101486.72;5016660;28;20606;-84
2022/11/29 03:50:27;;;;;;;88.57;31.73;;;;;;;4.73;100.00;101497.28;5032940;28;20025;-84
2022/11/29 03:53:00;;;;;;;48.35;28.95;;;;;;;4.72;100.00;101490.34;5033487;28;20036;-84
2022/11/29 03:55:31;;;;;;;43.38;28.73;;;;;;;4.70;100.00;101498.25;5030263;28;20504;-84
2022/11/29 03:58:05;;;;;;;115.95;34.72;;;;;;;4.70;100.00;101494.78;5032520;28;20029;-84
2022/11/29 04:00:46;;;;;;;125.68;33.90;;;;;;;4.71;100.00;101504.31;5028887;28;20430;-84
2022/11/29 04:03:33;;;;;;;97.15;30.52;;;;;;;4.67;100.00;101500.13;5032086;28;20040;-84
2022/11/29 04:06:20;;;;;;;126.82;35.45;;;;;;;4.65;100.00;101499.34;5018815;28;20041;-84
2022/11/29 04:09:15;;;;;;;180.02;40.72;;;;;;;4.68;100.00;101509.63;5032480;28;20091;-84
2022/11/29 04:12:11;;;;;;;95.93;32.03;;;;;;;4.68;100.00;101509.63;5010371;28;20124;-84
2022/11/29 04:15:05;;;;;;;100.70;35.70;;;;;;;4.68;100.00;101514.84;5032596;28;20104;-84
2022/11/29 04:17:55;;;;;;;190.93;43.75;;;;;;;4.61;100.00;101524.66;5019740;28;20026;-80
2022/11/29 04:20:41;;;;;;;105.80;32.80;;;;;;;4.67;100.00;101521.81;5031273;28;20481;-85
2022/11/29 04:23:36;;;;;;;173.02;42.35;;;;;;;4.61;100.00;101514.25;5030487;28;20053;-85
2022/11/29 04:26:24;;;;;;;117.20;37.97;;;;;;;4.61;100.00;101523.81;5029690;28;20053;-80
2022/11/29 04:29:12;;;;;;;95.28;33.72;;;;;;;4.60;100.00;101532.53;5030511;28;20029;-81
2022/11/29 04:31:51;;;;;;;58.20;29.33;;;;;;;4.60;100.00;101519.50;5030856;28;20478;-81
2022/11/29 04:34:43;;;;;;;62.20;28.83;;;;;;;4.60;100.00;101522.13;5020884;28;20034;-85
2022/11/29 04:37:37;;;;;;;46.35;27.25;;;;;;;4.65;100.00;101522.78;5010877;28;20080;-85
2022/11/29 04:40:43;;;;;;;51.75;26.58;;;;;;;4.65;100.00;101522.78;5011181;28;20032;-84
2022/11/29 04:43:32;;;;;;;59.60;27.77;;;;;;;4.57;100.00;101520.47;5011593;28;20034;-84
2022/11/29 04:46:28;;;;;;;154.80;38.92;;;;;;;4.50;100.00;101531.19;5019379;28;20170;-84
2022/11/29 04:49:15;;;;;;;49.67;27.00;;;;;;;4.56;100.00;101533.56;5031155;28;20025;-85
2022/11/29 04:51:40;;;;;;;111.82;34.05;;;;;;;4.42;100.00;101533.25;5027898;28;20063;-85
2022/11/29 04:54:34;;;;;;;152.40;39.55;;;;;;;4.43;100.00;101534.94;5018307;28;20049;-84
2022/11/29 04:57:31;;;;;;;65.00;27.48;;;;;;;4.46;100.00;101537.44;5030834;28;20029;-85
2022/11/29 05:00:10;;;;;;;75.47;31.23;;;;;;;4.35;100.00;101541.25;5030708;28;20532;-85
2022/11/29 05:02:49;;;;;;;42.78;27.00;;;;;;;4.33;100.00;101542.22;5031069;28;20041;-85
2022/11/29 05:05:35;;;;;;;115.68;37.00;;;;;;;4.30;100.00;101545.81;5029700;28;20028;-85
2022/11/29 05:08:19;;;;;;;91.63;32.92;;;;;;;4.32;100.00;101554.41;5029635;28;20050;-85
2022/11/29 05:10:59;;;;;;;87.45;31.75;;;;;;;4.25;100.00;101550.34;5012508;28;20088;-85
2022/11/29 05:13:52;;;;;;;41.05;25.52;;;;;;;4.29;100.00;101553.66;5010889;28;20033;-85
2022/11/29 05:16:29;;;;;;;;;;;;;;;4.39;100.00;101563.69;5032184;28;20030;-85
2022/11/29 05:19:09;;;;;;;44.70;27.42;;;;;;;4.30;100.00;101571.84;5030992;28;19913;-81
2022/11/29 05:21:56;;;;;;;45.03;26.75;;;;;;;4.31;100.00;101573.53;5031464;28;20504;-86
2022/11/29 05:25:00;;;;;;;32.60;27.65;;;;;;;4.40;100.00;101573.25;5030938;28;20037;-81
2022/11/29 05:27:44;;;;;;;40.67;25.58;;;;;;;4.40;100.00;101577.56;5007843;28;20038;-81
2022/11/29 05:30:22;;;;;;;47.50;25.20;;;;;;;4.42;100.00;101580.16;5017715;28;20028;-85
2022/11/29 05:33:06;;;;;;;39.03;25.25;;;;;;;4.40;100.00;101582.78;5031165;28;20030;-85
2022/11/29 05:35:50;;;;;;;37.15;25.75;;;;;;;4.37;100.00;101586.34;5030731;28;20025;-80
2022/11/29 05:38:41;;;;;;;69.60;30.88;;;;;;;4.33;100.00;101592.56;5011460;28;20022;-80
2022/11/29 05:41:40;;;;;;;92.43;35.75;;;;;;;4.35;100.00;101597.72;5023857;28;20473;-85
2022/11/29 05:44:20;;;;;;;38.40;25.10;;;;;;;4.35;100.00;101590.75;5023300;28;20113;-85
2022/11/29 05:46:53;;;;;;;44.03;26.20;;;;;;;4.30;100.00;101592.69;5010562;28;20052;-85
2022/11/29 05:49:32;;;;;;;42.78;27.13;;;;;;;4.36;100.00;101600.28;5027579;28;20071;-81
2022/11/29 05:52:28;;;;;;;55.28;26.73;;;;;;;4.38;100.00;101606.28;5029771;28;20444;-79
2022/11/29 05:55:19;;;;;;;56.42;27.05;;;;;;;4.36;100.00;101613.31;5030356;28;20028;-81
2022/11/29 05:58:17;;;;;;;44.58;26.60;;;;;;;4.36;100.00;101610.69;5027683;28;20381;-79
2022/11/29 06:00:56;;;;;;;57.13;28.30;;;;;;;4.33;100.00;101617.78;5018363;28;20036;-84
2022/11/29 06:03:40;;;;;;;78.25;33.83;;;;;;;4.30;100.00;101613.53;5026958;28;20056;-84
2022/11/29 06:06:21;;;;;;;68.45;30.77;;;;;;;4.34;100.00;101619.47;5028047;28;20053;-84
2022/11/29 06:08:59;;;;;;;37.15;29.92;;;;;;;4.37;100.00;101625.41;5029289;28;20125;-84
2022/11/29 06:11:32;;;;;;;39.63;29.98;;;;;;;4.39;100.00;101625.38;5027534;28;20025;-86
2022/11/29 06:14:06;;;;;;;42.00;28.92;;;;;;;4.43;100.00;101634.81;5029231;28;20104;-85
2022/11/29 06:16:55;;;;;;;83.60;33.08;;;;;;;4.44;100.00;101635.66;5021735;28;20029;-80
2022/11/29 06:19:32;;;;;;;112.15;35.97;;;;;;;4.40;100.00;101646.19;5024279;28;20029;-80
2022/11/29 06:22:20;;;;;;;121.18;35.53;;;;;;;4.38;100.00;101649.72;5028011;28;20581;-85
2022/11/29 06:25:04;;;;;;;86.30;31.10;;;;;;;4.43;100.00;101646.97;5028312;28;20029;-84
2022/11/29 06:28:08;;;;;;;68.38;30.42;;;;;;;4.48;100.00;101648.50;5028809;28;20650;-85
2022/11/29 06:31:01;;;;;;;93.63;31.15;;;;;;;4.50;100.00;101656.28;5028798;28;20035;-84
2022/11/29 06:33:37;;;;;;;111.07;32.30;;;;;;;4.47;100.00;101656.38;5004602;28;20042;-85
2022/11/29 06:36:13;;;;;;;198.20;44.97;;;;;;;4.40;100.00;101661.81;5024068;28;20113;-84
2022/11/29 06:38:39;;;;;;;99.35;33.00;;;;;;;4.45;100.00;101672.06;5028125;28;20968;-85
2022/11/29 06:41:04;;;;;;;122.18;34.33;;;;;;;4.47;100.00;101669.41;5029054;28;20028;-80
2022/11/29 06:43:30;;;;;;;204.93;43.08;;;;;;;4.44;100.00;101667.78;5027208;28;20079;-80
2022/11/29 06:46:12;;;;;;;90.07;32.25;;;;;;;4.54;100.00;101668.28;5028378;28;20032;-80
2022/11/29 06:48:47;;;;;;;119.13;34.95;;;;;;;4.48;100.00;101673.72;5028059;28;20037;-84
2022/11/29 06:51:22;;;;;;;57.35;30.67;;;;;;;4.52;100.00;101681.38;5022402;28;20053;-85
2022/11/29 06:53:56;;;;;;;139.52;38.20;;;;;;;4.54;100.00;101689.13;5029393;28;20041;-85
2022/11/29 06:56:40;;;;;;;189.38;43.03;;;;;;;4.56;100.00;101687.31;5028075;28;20037;-85
2022/11/29 06:59:17;;;;;;;84.95;32.08;;;;;;;4.62;100.00;101692.31;5028314;28;20476;-86
2022/11/29 07:01:50;;;;;;;99.28;34.03;;;;;;;4.60;100.00;101688.91;5029673;28;20025;-84
2022/11/29 07:04:51;;;;;;;51.40;30.73;;;;;;;4.66;100.00;101688.69;5027184;28;20714;-84
2022/11/29 07:07:22;;;;;;;83.88;32.70;;;;;;;4.64;100.00;101690.50;5027476;28;20102;-85
2022/11/29 07:09:51;;;;;;;62.72;32.88;;;;;;;4.66;100.00;101693.91;5030454;28;20025;-85
2022/11/29 07:12:17;;;;;;;40.83;31.00;;;;;;;4.71;100.00;101702.41;5029015;28;20036;-85
2022/11/29 07:14:43;;;;;;;38.55;30.60;;;;;;;4.74;100.00;101697.06;5028682;28;20382;-86
2022/11/29 07:17:41;;;;;;;39.42;30.80;;;;;;;4.78;100.00;101711.69;5030095;28;20172;-86
2022/11/29 07:20:09;;;;;;;36.75;30.33;;;;;;;4.80;100.00;101711.63;5026042;28;20029;-86
2022/11/29 07:22:46;;;;;;;39.65;30.98;;;;;;;4.84;100.00;101708.91;5028036;28;20052;-85
2022/11/29 07:25:20;;;;;;;39.60;30.38;;;;;;;4.83;100.00;101716.78;5009315;28;20056;-85
2022/11/29 07:27:54;;;;;;;40.72;30.35;;;;;;;4.82;100.00;101720.28;5010752;28;20030;-86
2022/11/29 07:30:58;;;;;;;67.80;34.08;;;;;;;4.84;100.00;101727.16;5014736;28;20053;-85
2022/11/29 07:33:50;;;;;;;42.75;30.70;;;;;;;4.89;100.00;101726.97;5025851;28;20552;-81
2022/11/29 07:36:27;;;;;;;58.28;33.30;;;;;;;4.86;100.00;101727.94;5028840;28;20025;-85
2022/11/29 07:39:07;;;;;;;49.83;32.00;;;;;;;4.86;100.00;101733.16;5010355;28;20026;-85
2022/11/29 07:41:55;;;;;;;39.53;30.75;;;;;;;4.87;100.00;101734.84;5014983;28;20029;-85
2022/11/29 07:44:34;;;;;;;41.38;30.33;;;;;;;4.86;100.00;101737.53;5027659;28;20489;-85
2022/11/29 07:47:00;;;;;;;70.63;33.25;;;;;;;4.86;100.00;101743.59;5023925;28;20034;-81
2022/11/29 07:49:25;;;;;;;54.28;31.77;;;;;;;4.86;100.00;101746.19;5009537;28;20032;-80
2022/11/29 07:51:53;;;;;;;44.17;31.90;;;;;;;4.94;100.00;101748.50;5027987;28;20028;-81
2022/11/29 07:54:24;;;;;;;72.45;37.05;;;;;;;4.88;100.00;101746.97;5027571;28;20104;-81
2022/11/29 07:56:50;;;;;;;71.47;35.45;;;;;;;4.91;100.00;101739.06;5025893;28;20472;-86
2022/11/29 07:59:15;;;;;;;58.42;34.75;;;;;;;4.96;100.00;101750.16;5020910;28;20030;-86
2022/11/29 08:01:41;;;;;;;50.17;32.95;;;;;;;5.02;100.00;101743.88;5014441;28;20026;-85
2022/11/29 08:04:07;;;;;;;61.38;34.70;;;;;;;5.00;100.00;101740.47;5021825;28;20162;-88
2022/11/29 08:06:33;;;;;;;82.63;36.67;;;;;;;4.99;100.00;101747.44;5014560;28;20039;-85
2022/11/29 08:08:59;;;;;;;99.57;38.95;;;;;;;4.99;100.00;101752.66;5029409;28;20030;-86
2022/11/29 08:11:26;;;;;;;87.13;36.75;;;;;;;4.97;100.00;101757.06;5029866;28;20028;-87
2022/11/29 08:13:58;;;;;;;51.80;34.47;;;;;;;5.01;100.00;101756.06;5016017;28;20030;-86
2022/11/29 08:16:25;;;;;;;46.40;32.90;;;;;;;5.10;100.00;101756.63;5023156;28;20038;-85
2022/11/29 08:18:51;;;;;;;49.00;34.45;;;;;;;5.08;100.00;101753.22;5043530;28;20028;-86
2022/11/29 08:21:17;;;;;;;83.65;37.17;;;;;;;5.12;100.00;101757.41;5034574;28;20457;-81
2022/11/29 08:23:44;;;;;;;66.22;35.15;;;;;;;5.13;100.00;101761.72;5022643;28;20076;-85
2022/11/29 08:26:10;;;;;;;90.68;37.40;;;;;;;5.15;100.00;101759.91;5040840;28;20036;-81
2022/11/29 08:28:35;;;;;;;76.97;35.88;;;;;;;5.17;100.00;101763.31;5038876;28;20095;-85
2022/11/29 08:31:02;;;;;;;82.85;37.83;;;;;;;5.18;100.00;101765.00;5032096;28;20034;-86
2022/11/29 08:33:28;;;;;;;90.40;37.60;;;;;;;5.20;100.00;101769.28;5026376;28;20038;-80
2022/11/29 08:35:54;;;;;;;119.60;42.97;;;;;;;5.18;100.00;101768.47;5045129;28;20503;-80
2022/11/29 08:38:20;;;;;;;97.63;39.28;;;;;;;5.22;100.00;101766.63;5037031;28;20029;-85
2022/11/29 08:40:45;;;;;;;84.22;37.92;;;;;;;5.26;100.00;101771.69;5043998;28;20033;-85
2022/11/29 08:43:12;;;;;;;71.75;35.63;;;;;;;5.29;100.00;101770.72;5047223;28;20036;-85
2022/11/29 08:45:37;;;;;;;83.15;38.25;;;;;;;5.28;100.00;101771.63;5040586;28;20026;-85
2022/11/29 08:48:03;;;;;;;75.88;36.08;;;;;;;5.35;100.00;101778.31;5028495;28;20047;-85
2022/11/29 08:50:29;;;;;;;72.88;35.65;;;;;;;5.38;100.00;101777.34;5018091;28;20040;-85
2022/11/29 08:55:41;;;;;;;72.30;35.22;;;;;;;5.47;100.00;101777.84;5032097;28;20037;-85
2022/11/29 08:58:10;;;;;;;64.38;34.50;;;;;;;5.50;100.00;101793.38;5020803;28;20449;-85
2022/11/29 09:00:37;;;;;;;76.72;34.78;;;;;;;5.54;100.00;101786.28;5024517;28;20610;-85
2022/11/29 09:05:49;;;;;;;163.15;42.15;;;;;;;5.50;100.00;101787.31;5023999;28;20049;-84
2022/11/29 09:08:15;;;;;;;173.30;41.90;;;;;;;5.50;100.00;101795.13;5031272;28;20037;-85
2022/11/29 09:10:42;;;;;;;180.15;43.97;;;;;;;5.50;100.00;101792.53;5031733;28;20048;-84
2022/11/29 09:13:08;;;;;;;155.80;40.75;;;;;;;5.51;100.00;101795.06;5031448;28;20393;-85
2022/11/29 09:15:36;;;;;;;88.65;37.67;;;;;;;5.57;100.00;101802.66;5029418;28;20033;-85
2022/11/29 09:18:04;;;;;;;74.65;36.88;;;;;;;5.64;100.00;101806.78;5032615;28;20026;-84
2022/11/29 09:20:30;;;;;;;248.00;50.17;;;;;;;5.56;100.00;101803.59;5010237;28;20174;-85
2022/11/29 09:22:58;;;;;;;247.57;48.67;;;;;;;5.59;100.00;101797.41;5013002;28;20121;-85
2022/11/29 09:25:24;;;;;;;102.32;38.58;;;;;;;5.69;100.00;101808.34;5030253;28;20128;-80
2022/11/29 09:27:50;;;;;;;127.20;39.88;;;;;;;5.74;100.00;101812.50;5030944;28;20017;-85
2022/11/29 09:30:17;;;;;;;107.78;39.30;;;;;;;5.81;100.00;101810.50;5031621;28;20041;-85
2022/11/29 09:32:44;;;;;;;92.50;38.33;;;;;;;5.86;100.00;101816.38;5030658;28;20044;-85
2022/11/29 09:35:10;;;;;;;92.80;38.40;;;;;;;5.92;100.00;101824.84;5031477;28;20440;-85
2022/11/29 09:37:35;;;;;;;178.18;43.85;;;;;;;5.92;100.00;101826.63;5031252;28;20017;-85
2022/11/29 09:40:05;;;;;;;120.82;39.22;;;;;;;5.99;100.00;101828.06;5045896;28;20022;-85
2022/11/29 09:42:48;;;;;;;107.80;39.20;;;;;;;6.05;100.00;101832.25;5031187;28;20116;-80
2022/11/29 09:45:21;;;;;;;;;;;;;;;6.18;100.00;101842.13;5031463;28;20025;-85
2022/11/29 09:47:59;;;;;;;88.93;37.20;;;;;;;6.12;100.00;101833.69;5013961;28;20017;-80
2022/11/29 09:50:32;;;;;;;123.00;39.00;;;;;;;6.19;100.00;101836.00;5019328;28;20064;-80
2022/11/29 09:53:20;;;;;;;81.65;36.55;;;;;;;6.27;100.00;101841.75;5024131;28;20111;-80
2022/11/29 09:55:55;;;;;;;109.10;37.90;;;;;;;6.34;100.00;101839.75;5021674;28;20056;-80
2022/11/29 09:58:25;;;;;;;107.75;33.95;;;;;;;6.35;100.00;101845.81;5026576;28;20033;-80
2022/11/29 10:00:55;;;;;;;77.60;33.03;;;;;;;6.36;100.00;101848.38;5027150;28;20075;-81
2022/11/29 10:03:29;;;;;;;70.22;29.00;;;;;;;6.42;100.00;101848.16;5010802;28;20033;-80
2022/11/29 10:06:22;;;;;;;136.80;34.08;;;;;;;6.37;100.00;101849.22;5015256;28;20179;-81
2022/11/29 10:09:00;;;;;;;129.90;34.28;;;;;;;6.40;100.00;101851.72;5027316;28;20474;-81
2022/11/29 10:11:37;;;;;;;122.30;35.05;;;;;;;6.49;100.00;101852.22;5029260;28;20030;-81
2022/11/29 10:14:14;;;;;;;103.05;32.03;;;;;;;6.51;100.00;101842.53;5025267;28;20108;-81
2022/11/29 10:16:49;;;;;;;121.07;34.30;;;;;;;6.54;100.00;101849.41;5029265;28;20037;-81
2022/11/29 10:19:31;;;;;;;62.85;30.58;;;;;;;6.57;100.00;101849.28;5028264;28;20025;-80
2022/11/29 10:22:12;;;;;;;55.57;29.07;;;;;;;6.68;100.00;101844.44;5028973;28;20021;-85
2022/11/29 10:24:41;;;;;;;88.25;28.85;;;;;;;6.65;100.00;101843.72;5028113;28;20029;-85
2022/11/29 10:27:34;;;;;;;100.05;27.48;;;;;;;6.79;100.00;101842.22;5029194;28;20375;-84
2022/11/29 10:30:01;;;;;;;70.93;25.50;;;;;;;6.74;100.00;101843.34;5007436;28;20100;-84
2022/11/29 10:32:30;;;;;;;79.30;25.95;;;;;;;6.73;100.00;101847.72;5026662;28;20393;-85
2022/11/29 10:34:59;;;;;;;65.22;25.05;;;;;;;6.71;100.00;101841.69;5036053;28;20037;-83
2022/11/29 10:37:31;;;;;;;56.65;24.63;;;;;;;6.76;100.00;101834.50;5023549;28;20041;-84
2022/11/29 10:40:03;;;;;;;59.80;24.85;;;;;;;6.73;100.00;101837.25;5020883;28;20170;-84
2022/11/29 10:42:47;;;;;;;106.03;27.63;;;;;;;6.71;100.00;101839.09;5025090;28;20026;-84
2022/11/29 10:45:15;;;;;;;77.03;26.70;;;;;;;6.69;100.00;101834.84;5027394;28;20030;-85
2022/11/29 10:47:45;;;;;;;70.75;27.38;;;;;;;6.72;100.00;101850.41;5028848;28;20037;-84
2022/11/29 10:50:23;;;;;;;89.70;28.75;;;;;;;6.66;100.00;101846.28;5025991;28;20068;-84
2022/11/29 10:52:49;;;;;;;136.48;32.58;;;;;;;6.63;100.00;101846.41;5015860;28;20075;-85
2022/11/29 10:55:16;;;;;;;59.45;29.15;;;;;;;6.69;100.00;101846.16;5016924;28;20057;-85
2022/11/29 10:58:24;;;;;;;63.95;29.02;;;;;;;6.72;100.00;101845.16;5032050;28;20509;-85
2022/11/29 11:00:59;;;;;;;85.03;29.13;;;;;;;6.61;100.00;101848.25;5014531;28;20386;-85
2022/11/29 11:03:40;;;;;;;76.93;29.17;;;;;;;6.64;100.00;101844.66;5015521;28;20037;-85
2022/11/29 11:06:16;;;;;;;95.80;30.13;;;;;;;6.66;100.00;101850.66;5023353;28;20025;-85
2022/11/29 11:08:46;;;;;;;61.63;27.67;;;;;;;6.64;100.00;101842.88;5024855;28;20041;-84
2022/11/29 11:11:13;;;;;;;159.52;30.30;;;;;;;6.60;100.00;101847.38;5029136;28;20390;-85
2022/11/29 11:13:39;;;;;;;87.90;27.30;;;;;;;6.55;100.00;101843.28;5029497;28;20025;-85
2022/11/29 11:16:23;;;;;;;69.00;27.25;;;;;;;6.62;100.00;101844.72;5027783;28;20026;-85
2022/11/29 11:18:48;;;;;;;58.15;26.95;;;;;;;6.64;100.00;101850.72;5027556;28;20062;-80
2022/11/29 11:21:17;;;;;;;57.65;27.60;;;;;;;6.70;100.00;101847.84;5008976;28;20391;-85
2022/11/29 11:23:53;;;;;;;96.72;29.38;;;;;;;6.62;100.00;101852.56;5016673;28;20505;-85
2022/11/29 11:26:23;;;;;;;142.88;31.73;;;;;;;6.59;100.00;101855.28;5028274;28;20033;-80
2022/11/29 11:28:51;;;;;;;54.95;27.75;;;;;;;6.69;100.00;101859.22;5026029;28;20426;-85
2022/11/29 11:31:28;;;;;;;94.22;29.70;;;;;;;6.62;100.00;101855.16;5028331;28;20030;-85
2022/11/29 11:33:53;;;;;;;61.55;28.38;;;;;;;6.73;100.00;101858.19;5027158;28;20018;-84
2022/11/29 11:36:18;;;;;;;72.43;29.17;;;;;;;6.76;100.00;101858.06;5029010;28;20037;-80
2022/11/29 11:38:53;;;;;;;152.68;34.05;;;;;;;6.75;100.00;101866.81;5028140;28;20026;-84
2022/11/29 11:42:35;;;;;;;68.05;29.30;;;;;;;6.78;100.00;101861.44;5027778;28;20120;-83
2022/11/29 11:44:21;;;;;;;62.55;29.02;;;;;;;6.85;100.00;101867.31;5029238;28;20041;-81
2022/11/29 11:46:49;;;;;;;89.43;29.25;;;;;;;6.81;100.00;101871.81;5027655;28;20017;-81
2022/11/29 11:49:46;;;;;;;63.25;29.10;;;;;;;6.91;100.00;101867.03;5028944;28;20445;-85
2022/11/29 11:52:24;;;;;;;54.45;27.70;;;;;;;6.91;100.00;101867.88;5031295;28;20134;-85
2022/11/29 11:54:54;;;;;;;54.35;28.70;;;;;;;6.94;100.00;101872.13;5032805;28;20056;-85